sensor_id;sensor_type;location;lat;lon;timestamp;temperature;humidity
13488;DHT22;6816;48.506;9.050;2024-01-10T00:01:20;-3.30;93.80
13488;DHT22;6816;48.506;9.050;2024-01-10T00:04:26;-3.30;93.80
13488;DHT22;6816;48.506;9.050;2024-01-10T00:07:27;-3.30;93.80
13488;DHT22;6816;48.506;9.050;2024-01-10T00:10:27;-3.30;93.80
13488;DHT22;6816;48.506;9.050;2024-01-10T00:13:31;-3.30;93.90
13488;DHT22;6816;48.506;9.050;2024-01-10T00:16:32;-3.00;94.00
13488;DHT22;6816;48.506;9.050;2024-01-10T00:19:33;-3.20;94.00
13488;DHT22;6816;48.506;9.050;2024-01-10T00:22:33;-3.20;94.00
13488;DHT22;6816;48.506;9.050;2024-01-10T00:25:34;-3.20;94.00
13488;DHT22;6816;48.506;9.050;2024-01-10T00:28:42;-3.00;94.10
13488;DHT22;6816;48.506;9.050;2024-01-10T00:31:43;-3.20;94.10
13488;DHT22;6816;48.506;9.050;2024-01-10T00:34:44;-3.10;94.20
13488;DHT22;6816;48.506;9.050;2024-01-10T00:37:45;-3.10;94.20
13488;DHT22;6816;48.506;9.050;2024-01-10T00:40:45;-3.10;94.20
13488;DHT22;6816;48.506;9.050;2024-01-10T00:43:50;-3.00;94.30
13488;DHT22;6816;48.506;9.050;2024-01-10T00:46:55;-3.00;94.20
13488;DHT22;6816;48.506;9.050;2024-01-10T00:49:56;-2.80;94.30
13488;DHT22;6816;48.506;9.050;2024-01-10T00:52:57;-2.90;94.30
13488;DHT22;6816;48.506;9.050;2024-01-10T00:56:01;-2.90;94.30
13488;DHT22;6816;48.506;9.050;2024-01-10T00:59:02;-2.90;94.20
13488;DHT22;6816;48.506;9.050;2024-01-10T01:02:03;-2.90;94.30
13488;DHT22;6816;48.506;9.050;2024-01-10T01:05:03;-2.80;94.40
13488;DHT22;6816;48.506;9.050;2024-01-10T01:08:04;-2.80;94.40
13488;DHT22;6816;48.506;9.050;2024-01-10T01:11:06;-2.80;94.40
13488;DHT22;6816;48.506;9.050;2024-01-10T01:14:07;-2.70;94.40
13488;DHT22;6816;48.506;9.050;2024-01-10T01:17:08;-2.70;94.40
13488;DHT22;6816;48.506;9.050;2024-01-10T01:20:09;-2.70;94.30
13488;DHT22;6816;48.506;9.050;2024-01-10T01:23:10;-2.60;94.40
13488;DHT22;6816;48.506;9.050;2024-01-10T01:26:10;-2.60;94.30
13488;DHT22;6816;48.506;9.050;2024-01-10T01:29:13;-2.60;94.30
13488;DHT22;6816;48.506;9.050;2024-01-10T01:32:13;-2.60;94.30
13488;DHT22;6816;48.506;9.050;2024-01-10T01:35:14;-2.60;94.30
13488;DHT22;6816;48.506;9.050;2024-01-10T01:38:15;-2.50;94.40
13488;DHT22;6816;48.506;9.050;2024-01-10T01:41:16;-2.50;94.40
13488;DHT22;6816;48.506;9.050;2024-01-10T01:44:16;-2.50;94.40
13488;DHT22;6816;48.506;9.050;2024-01-10T01:47:17;-2.50;94.40
13488;DHT22;6816;48.506;9.050;2024-01-10T01:50:18;-2.40;94.40
13488;DHT22;6816;48.506;9.050;2024-01-10T01:53:19;-2.40;94.50
13488;DHT22;6816;48.506;9.050;2024-01-10T01:56:20;-2.20;94.80
13488;DHT22;6816;48.506;9.050;2024-01-10T01:59:21;-2.30;94.50
13488;DHT22;6816;48.506;9.050;2024-01-10T02:02:21;-2.30;94.50
13488;DHT22;6816;48.506;9.050;2024-01-10T02:05:23;-2.30;94.50
13488;DHT22;6816;48.506;9.050;2024-01-10T02:08:23;-2.20;94.60
13488;DHT22;6816;48.506;9.050;2024-01-10T02:11:25;-2.20;94.60
13488;DHT22;6816;48.506;9.050;2024-01-10T02:14:25;-2.20;94.60
13488;DHT22;6816;48.506;9.050;2024-01-10T02:17:26;-2.10;94.70
13488;DHT22;6816;48.506;9.050;2024-01-10T02:20:27;-2.10;94.70
13488;DHT22;6816;48.506;9.050;2024-01-10T02:23:28;-2.10;94.70
13488;DHT22;6816;48.506;9.050;2024-01-10T02:26:29;-2.00;94.70
13488;DHT22;6816;48.506;9.050;2024-01-10T02:29:30;-2.00;94.70
13488;DHT22;6816;48.506;9.050;2024-01-10T02:32:32;-1.90;94.70
13488;DHT22;6816;48.506;9.050;2024-01-10T02:35:32;-1.90;94.80
13488;DHT22;6816;48.506;9.050;2024-01-10T02:38:33;-1.90;94.80
13488;DHT22;6816;48.506;9.050;2024-01-10T02:41:34;-1.80;94.80
13488;DHT22;6816;48.506;9.050;2024-01-10T02:44:34;-1.80;94.80
13488;DHT22;6816;48.506;9.050;2024-01-10T02:47:35;-1.80;94.80
13488;DHT22;6816;48.506;9.050;2024-01-10T02:50:37;-1.70;94.80
13488;DHT22;6816;48.506;9.050;2024-01-10T02:53:39;-1.70;94.80
13488;DHT22;6816;48.506;9.050;2024-01-10T02:56:39;-1.70;94.70
13488;DHT22;6816;48.506;9.050;2024-01-10T02:59:40;-1.70;94.70
13488;DHT22;6816;48.506;9.050;2024-01-10T03:02:41;-1.60;94.70
13488;DHT22;6816;48.506;9.050;2024-01-10T03:05:41;-1.60;94.70
13488;DHT22;6816;48.506;9.050;2024-01-10T03:08:42;-1.60;94.60
13488;DHT22;6816;48.506;9.050;2024-01-10T03:11:42;-1.50;94.50
13488;DHT22;6816;48.506;9.050;2024-01-10T03:14:43;-1.60;94.40
13488;DHT22;6816;48.506;9.050;2024-01-10T03:17:44;-1.60;94.40
13488;DHT22;6816;48.506;9.050;2024-01-10T03:20:44;-1.70;94.30
13488;DHT22;6816;48.506;9.050;2024-01-10T03:23:45;-1.70;94.20
13488;DHT22;6816;48.506;9.050;2024-01-10T03:26:46;-1.70;94.20
13488;DHT22;6816;48.506;9.050;2024-01-10T03:29:46;-1.60;94.20
13488;DHT22;6816;48.506;9.050;2024-01-10T03:32:47;-1.80;94.20
13488;DHT22;6816;48.506;9.050;2024-01-10T03:35:47;-1.80;94.20
13488;DHT22;6816;48.506;9.050;2024-01-10T03:38:48;-1.40;94.40
13488;DHT22;6816;48.506;9.050;2024-01-10T03:41:48;-1.70;94.40
13488;DHT22;6816;48.506;9.050;2024-01-10T03:44:49;-1.80;94.40
13488;DHT22;6816;48.506;9.050;2024-01-10T03:47:50;-1.80;94.40
13488;DHT22;6816;48.506;9.050;2024-01-10T03:50:51;-1.50;94.50
13488;DHT22;6816;48.506;9.050;2024-01-10T03:53:53;-1.80;94.60
13488;DHT22;6816;48.506;9.050;2024-01-10T03:56:55;-1.80;94.50
13488;DHT22;6816;48.506;9.050;2024-01-10T03:59:55;-1.80;94.60
13488;DHT22;6816;48.506;9.050;2024-01-10T04:02:56;-1.80;94.60
13488;DHT22;6816;48.506;9.050;2024-01-10T04:05:57;-1.70;94.70
13488;DHT22;6816;48.506;9.050;2024-01-10T04:08:57;-1.70;94.70
13488;DHT22;6816;48.506;9.050;2024-01-10T04:11:58;-1.70;94.80
13488;DHT22;6816;48.506;9.050;2024-01-10T04:14:59;-1.60;94.80
13488;DHT22;6816;48.506;9.050;2024-01-10T04:17:59;-1.60;94.80
13488;DHT22;6816;48.506;9.050;2024-01-10T04:21:00;-1.60;94.80
13488;DHT22;6816;48.506;9.050;2024-01-10T04:24:00;-1.50;94.80
13488;DHT22;6816;48.506;9.050;2024-01-10T04:27:01;-1.50;94.80
13488;DHT22;6816;48.506;9.050;2024-01-10T04:30:02;-1.30;94.90
13488;DHT22;6816;48.506;9.050;2024-01-10T04:33:03;-1.50;94.80
13488;DHT22;6816;48.506;9.050;2024-01-10T04:36:04;-1.40;94.90
13488;DHT22;6816;48.506;9.050;2024-01-10T04:39:05;-1.40;95.00
13488;DHT22;6816;48.506;9.050;2024-01-10T04:42:06;-1.40;95.00
13488;DHT22;6816;48.506;9.050;2024-01-10T04:45:07;-1.40;94.90
13488;DHT22;6816;48.506;9.050;2024-01-10T04:48:09;-1.30;94.90
13488;DHT22;6816;48.506;9.050;2024-01-10T04:51:10;-1.30;94.90
13488;DHT22;6816;48.506;9.050;2024-01-10T04:54:11;-1.30;94.90
13488;DHT22;6816;48.506;9.050;2024-01-10T04:57:12;-1.30;94.90
13488;DHT22;6816;48.506;9.050;2024-01-10T05:00:12;-1.30;94.90
13488;DHT22;6816;48.506;9.050;2024-01-10T05:03:13;-1.30;94.80
13488;DHT22;6816;48.506;9.050;2024-01-10T05:06:15;-1.30;94.70
13488;DHT22;6816;48.506;9.050;2024-01-10T05:09:15;-1.30;94.70
13488;DHT22;6816;48.506;9.050;2024-01-10T05:12:16;-1.30;94.70
13488;DHT22;6816;48.506;9.050;2024-01-10T05:15:17;-1.30;95.00
13488;DHT22;6816;48.506;9.050;2024-01-10T05:18:18;-1.30;94.60
13488;DHT22;6816;48.506;9.050;2024-01-10T05:21:19;-1.20;94.60
13488;DHT22;6816;48.506;9.050;2024-01-10T05:24:19;-1.30;94.70
13488;DHT22;6816;48.506;9.050;2024-01-10T05:27:20;-1.30;94.60
13488;DHT22;6816;48.506;9.050;2024-01-10T05:30:21;-1.30;94.60
13488;DHT22;6816;48.506;9.050;2024-01-10T05:33:22;-1.30;94.60
13488;DHT22;6816;48.506;9.050;2024-01-10T05:36:23;-1.40;94.50
13488;DHT22;6816;48.506;9.050;2024-01-10T05:39:24;-1.40;94.40
13488;DHT22;6816;48.506;9.050;2024-01-10T05:42:24;-1.40;94.40
13488;DHT22;6816;48.506;9.050;2024-01-10T05:45:26;-1.30;94.30
13488;DHT22;6816;48.506;9.050;2024-01-10T05:48:26;-1.50;94.20
13488;DHT22;6816;48.506;9.050;2024-01-10T05:51:27;-1.60;94.10
13488;DHT22;6816;48.506;9.050;2024-01-10T05:54:28;-1.60;94.00
13488;DHT22;6816;48.506;9.050;2024-01-10T05:57:28;-1.70;94.30
13488;DHT22;6816;48.506;9.050;2024-01-10T06:00:30;-1.80;93.80
13488;DHT22;6816;48.506;9.050;2024-01-10T06:03:31;-1.80;93.80
13488;DHT22;6816;48.506;9.050;2024-01-10T06:06:32;-1.90;94.10
13488;DHT22;6816;48.506;9.050;2024-01-10T06:09:32;-1.90;93.70
13488;DHT22;6816;48.506;9.050;2024-01-10T06:12:33;-2.00;94.00
13488;DHT22;6816;48.506;9.050;2024-01-10T06:15:34;-2.10;93.60
13488;DHT22;6816;48.506;9.050;2024-01-10T06:18:34;-2.20;93.60
13488;DHT22;6816;48.506;9.050;2024-01-10T06:21:35;-2.20;93.60
13488;DHT22;6816;48.506;9.050;2024-01-10T06:24:36;-2.30;93.60
13488;DHT22;6816;48.506;9.050;2024-01-10T06:27:36;-2.30;94.00
13488;DHT22;6816;48.506;9.050;2024-01-10T06:30:37;-2.40;93.60
13488;DHT22;6816;48.506;9.050;2024-01-10T06:33:38;-2.40;93.60
13488;DHT22;6816;48.506;9.050;2024-01-10T06:36:38;-2.50;93.60
13488;DHT22;6816;48.506;9.050;2024-01-10T06:39:39;-2.50;93.70
13488;DHT22;6816;48.506;9.050;2024-01-10T06:42:40;-2.60;93.60
13488;DHT22;6816;48.506;9.050;2024-01-10T06:45:40;-2.60;93.70
13488;DHT22;6816;48.506;9.050;2024-01-10T06:48:45;-2.70;93.70
13488;DHT22;6816;48.506;9.050;2024-01-10T06:51:46;-2.70;93.70
13488;DHT22;6816;48.506;9.050;2024-01-10T06:54:47;-2.80;93.70
13488;DHT22;6816;48.506;9.050;2024-01-10T06:57:47;-2.80;93.70
13488;DHT22;6816;48.506;9.050;2024-01-10T07:00:49;-2.80;93.70
13488;DHT22;6816;48.506;9.050;2024-01-10T07:03:52;-2.90;93.70
13488;DHT22;6816;48.506;9.050;2024-01-10T07:06:53;-2.90;93.70
13488;DHT22;6816;48.506;9.050;2024-01-10T07:09:54;-2.90;93.80
13488;DHT22;6816;48.506;9.050;2024-01-10T07:12:55;-3.00;93.70
13488;DHT22;6816;48.506;9.050;2024-01-10T07:15:56;-3.00;93.80
13488;DHT22;6816;48.506;9.050;2024-01-10T07:18:56;-3.00;93.90
13488;DHT22;6816;48.506;9.050;2024-01-10T07:21:57;-3.00;94.00
13488;DHT22;6816;48.506;9.050;2024-01-10T07:24:57;-3.00;94.10
13488;DHT22;6816;48.506;9.050;2024-01-10T07:27:58;-3.00;94.10
13488;DHT22;6816;48.506;9.050;2024-01-10T07:30:59;-3.00;94.10
13488;DHT22;6816;48.506;9.050;2024-01-10T07:34:02;-3.00;94.10
13488;DHT22;6816;48.506;9.050;2024-01-10T07:37:06;-3.10;94.10
13488;DHT22;6816;48.506;9.050;2024-01-10T07:40:07;-3.10;94.10
13488;DHT22;6816;48.506;9.050;2024-01-10T07:43:09;-3.10;94.10
13488;DHT22;6816;48.506;9.050;2024-01-10T07:46:11;-3.10;94.20
13488;DHT22;6816;48.506;9.050;2024-01-10T07:49:12;-3.00;94.30
13488;DHT22;6816;48.506;9.050;2024-01-10T07:52:12;-3.00;94.40
13488;DHT22;6816;48.506;9.050;2024-01-10T07:55:13;-3.00;94.50
13488;DHT22;6816;48.506;9.050;2024-01-10T07:58:14;-3.00;94.50
13488;DHT22;6816;48.506;9.050;2024-01-10T08:01:16;-2.90;94.50
13488;DHT22;6816;48.506;9.050;2024-01-10T08:04:17;-2.90;94.50
13488;DHT22;6816;48.506;9.050;2024-01-10T08:07:18;-2.90;94.60
13488;DHT22;6816;48.506;9.050;2024-01-10T08:10:20;-2.90;94.50
13488;DHT22;6816;48.506;9.050;2024-01-10T08:13:20;-2.90;94.50
13488;DHT22;6816;48.506;9.050;2024-01-10T08:16:21;-2.80;94.60
13488;DHT22;6816;48.506;9.050;2024-01-10T08:19:22;-2.60;94.70
13488;DHT22;6816;48.506;9.050;2024-01-10T08:22:22;-2.80;94.70
13488;DHT22;6816;48.506;9.050;2024-01-10T08:25:23;-2.70;94.80
13488;DHT22;6816;48.506;9.050;2024-01-10T08:28:24;-2.70;95.00
13488;DHT22;6816;48.506;9.050;2024-01-10T08:31:26;-2.60;95.10
13488;DHT22;6816;48.506;9.050;2024-01-10T08:34:27;-2.60;95.30
13488;DHT22;6816;48.506;9.050;2024-01-10T08:37:28;-2.50;95.40
13488;DHT22;6816;48.506;9.050;2024-01-10T08:40:28;-2.40;95.50
13488;DHT22;6816;48.506;9.050;2024-01-10T08:43:29;-2.30;95.60
13488;DHT22;6816;48.506;9.050;2024-01-10T08:46:31;-2.20;95.70
13488;DHT22;6816;48.506;9.050;2024-01-10T08:49:32;-2.10;95.80
13488;DHT22;6816;48.506;9.050;2024-01-10T08:52:32;-2.00;95.70
13488;DHT22;6816;48.506;9.050;2024-01-10T08:55:33;-2.00;95.70
13488;DHT22;6816;48.506;9.050;2024-01-10T08:58:34;-1.90;95.80
13488;DHT22;6816;48.506;9.050;2024-01-10T09:01:35;-1.80;95.90
13488;DHT22;6816;48.506;9.050;2024-01-10T09:04:35;-1.70;96.00
13488;DHT22;6816;48.506;9.050;2024-01-10T09:07:36;-1.60;96.10
13488;DHT22;6816;48.506;9.050;2024-01-10T09:10:37;-1.50;96.10
13488;DHT22;6816;48.506;9.050;2024-01-10T09:13:38;-1.40;96.20
13488;DHT22;6816;48.506;9.050;2024-01-10T09:16:40;-1.20;96.20
13488;DHT22;6816;48.506;9.050;2024-01-10T09:19:41;-1.20;96.20
13488;DHT22;6816;48.506;9.050;2024-01-10T09:22:41;-0.90;96.20
13488;DHT22;6816;48.506;9.050;2024-01-10T09:25:42;-1.00;96.10
13488;DHT22;6816;48.506;9.050;2024-01-10T09:28:43;-0.90;96.10
13488;DHT22;6816;48.506;9.050;2024-01-10T09:31:43;-0.80;96.00
13488;DHT22;6816;48.506;9.050;2024-01-10T09:34:44;-0.80;95.90
13488;DHT22;6816;48.506;9.050;2024-01-10T09:37:45;-0.70;95.90
13488;DHT22;6816;48.506;9.050;2024-01-10T09:40:46;-0.60;95.90
13488;DHT22;6816;48.506;9.050;2024-01-10T09:43:47;-0.60;96.00
13488;DHT22;6816;48.506;9.050;2024-01-10T09:46:52;-0.50;96.00
13488;DHT22;6816;48.506;9.050;2024-01-10T09:49:54;-0.40;95.70
13488;DHT22;6816;48.506;9.050;2024-01-10T09:53:06;-0.40;95.80
13488;DHT22;6816;48.506;9.050;2024-01-10T09:56:08;-0.40;95.30
13488;DHT22;6816;48.506;9.050;2024-01-10T09:59:10;-0.40;95.50
13488;DHT22;6816;48.506;9.050;2024-01-10T10:02:11;-0.30;95.60
13488;DHT22;6816;48.506;9.050;2024-01-10T10:05:17;-0.30;95.90
13488;DHT22;6816;48.506;9.050;2024-01-10T10:08:18;-0.20;95.60
13488;DHT22;6816;48.506;9.050;2024-01-10T10:11:22;-0.20;96.00
13488;DHT22;6816;48.506;9.050;2024-01-10T10:14:24;-0.20;95.60
13488;DHT22;6816;48.506;9.050;2024-01-10T10:17:28;-0.10;95.60
13488;DHT22;6816;48.506;9.050;2024-01-10T10:20:30;-0.10;95.70
13488;DHT22;6816;48.506;9.050;2024-01-10T10:23:33;0.00;95.80
13488;DHT22;6816;48.506;9.050;2024-01-10T10:26:35;0.10;96.10
13488;DHT22;6816;48.506;9.050;2024-01-10T10:29:36;0.20;96.40
13488;DHT22;6816;48.506;9.050;2024-01-10T10:32:37;0.40;96.80
13488;DHT22;6816;48.506;9.050;2024-01-10T10:35:38;0.60;97.40
13488;DHT22;6816;48.506;9.050;2024-01-10T10:38:39;0.90;98.00
13488;DHT22;6816;48.506;9.050;2024-01-10T10:41:39;1.20;98.30
13488;DHT22;6816;48.506;9.050;2024-01-10T10:44:43;1.60;98.60
13488;DHT22;6816;48.506;9.050;2024-01-10T10:47:46;1.90;98.50
13488;DHT22;6816;48.506;9.050;2024-01-10T10:51:13;2.20;98.40
13488;DHT22;6816;48.506;9.050;2024-01-10T10:54:16;2.50;96.80
13488;DHT22;6816;48.506;9.050;2024-01-10T10:57:19;2.70;98.00
13488;DHT22;6816;48.506;9.050;2024-01-10T11:00:21;2.90;97.80
13488;DHT22;6816;48.506;9.050;2024-01-10T11:03:27;3.10;97.50
13488;DHT22;6816;48.506;9.050;2024-01-10T11:06:29;3.30;97.30
13488;DHT22;6816;48.506;9.050;2024-01-10T11:09:30;3.30;97.20
13488;DHT22;6816;48.506;9.050;2024-01-10T11:16:38;3.50;95.60
13488;DHT22;6816;48.506;9.050;2024-01-10T11:20:05;3.60;95.40
13488;DHT22;6816;48.506;9.050;2024-01-10T11:23:42;3.70;95.80
13488;DHT22;6816;48.506;9.050;2024-01-10T11:26:45;3.90;95.40
13488;DHT22;6816;48.506;9.050;2024-01-10T11:29:46;4.00;97.00
13488;DHT22;6816;48.506;9.050;2024-01-10T11:32:48;4.30;96.80
13488;DHT22;6816;48.506;9.050;2024-01-10T11:36:17;4.20;96.40
13488;DHT22;6816;48.506;9.050;2024-01-10T11:39:19;4.30;94.60
13488;DHT22;6816;48.506;9.050;2024-01-10T11:42:23;4.40;96.50
13488;DHT22;6816;48.506;9.050;2024-01-10T11:48:32;4.60;96.20
13488;DHT22;6816;48.506;9.050;2024-01-10T11:51:35;4.80;97.30
13488;DHT22;6816;48.506;9.050;2024-01-10T11:54:39;4.90;96.60
13488;DHT22;6816;48.506;9.050;2024-01-10T11:57:43;5.10;95.90
13488;DHT22;6816;48.506;9.050;2024-01-10T12:00:44;5.10;95.90
13488;DHT22;6816;48.506;9.050;2024-01-10T12:03:46;5.10;95.80
13488;DHT22;6816;48.506;9.050;2024-01-10T12:06:48;5.00;95.90
13488;DHT22;6816;48.506;9.050;2024-01-10T12:09:48;5.10;95.90
13488;DHT22;6816;48.506;9.050;2024-01-10T12:12:50;5.00;95.50
13488;DHT22;6816;48.506;9.050;2024-01-10T12:15:55;5.10;95.30
13488;DHT22;6816;48.506;9.050;2024-01-10T12:18:56;4.90;95.10
13488;DHT22;6816;48.506;9.050;2024-01-10T12:21:57;4.70;95.10
13488;DHT22;6816;48.506;9.050;2024-01-10T12:25:04;4.60;95.30
13488;DHT22;6816;48.506;9.050;2024-01-10T12:28:05;4.50;94.70
13488;DHT22;6816;48.506;9.050;2024-01-10T12:31:06;4.40;95.50
13488;DHT22;6816;48.506;9.050;2024-01-10T12:34:09;4.40;95.60
13488;DHT22;6816;48.506;9.050;2024-01-10T12:37:11;4.40;95.50
13488;DHT22;6816;48.506;9.050;2024-01-10T12:40:12;4.30;95.50
13488;DHT22;6816;48.506;9.050;2024-01-10T12:43:14;4.20;95.50
13488;DHT22;6816;48.506;9.050;2024-01-10T12:46:14;4.10;95.50
13488;DHT22;6816;48.506;9.050;2024-01-10T12:49:15;4.10;95.50
13488;DHT22;6816;48.506;9.050;2024-01-10T12:52:16;4.10;95.70
13488;DHT22;6816;48.506;9.050;2024-01-10T12:55:17;4.00;95.80
13488;DHT22;6816;48.506;9.050;2024-01-10T12:58:18;3.90;95.70
13488;DHT22;6816;48.506;9.050;2024-01-10T13:01:20;4.00;95.80
13488;DHT22;6816;48.506;9.050;2024-01-10T13:04:21;3.80;95.70
13488;DHT22;6816;48.506;9.050;2024-01-10T13:07:22;3.80;95.80
13488;DHT22;6816;48.506;9.050;2024-01-10T13:10:22;3.80;95.90
13488;DHT22;6816;48.506;9.050;2024-01-10T13:13:24;3.70;95.80
13488;DHT22;6816;48.506;9.050;2024-01-10T13:16:25;3.90;95.70
13488;DHT22;6816;48.506;9.050;2024-01-10T13:19:26;3.70;95.80
13488;DHT22;6816;48.506;9.050;2024-01-10T13:22:26;3.70;95.90
13488;DHT22;6816;48.506;9.050;2024-01-10T13:25:29;3.80;95.90
13488;DHT22;6816;48.506;9.050;2024-01-10T13:28:31;3.70;95.80
13488;DHT22;6816;48.506;9.050;2024-01-10T13:31:32;3.60;95.80
13488;DHT22;6816;48.506;9.050;2024-01-10T13:34:33;3.70;96.10
13488;DHT22;6816;48.506;9.050;2024-01-10T13:37:33;3.80;96.30
13488;DHT22;6816;48.506;9.050;2024-01-10T13:40:34;3.60;96.30
13488;DHT22;6816;48.506;9.050;2024-01-10T13:43:35;3.80;96.20
13488;DHT22;6816;48.506;9.050;2024-01-10T13:46:36;3.60;96.10
13488;DHT22;6816;48.506;9.050;2024-01-10T13:49:36;3.70;96.20
13488;DHT22;6816;48.506;9.050;2024-01-10T13:52:37;3.70;96.20
13488;DHT22;6816;48.506;9.050;2024-01-10T13:55:37;3.80;96.30
13488;DHT22;6816;48.506;9.050;2024-01-10T13:58:38;3.60;96.30
13488;DHT22;6816;48.506;9.050;2024-01-10T14:01:39;3.70;96.30
13488;DHT22;6816;48.506;9.050;2024-01-10T14:04:39;3.60;96.30
13488;DHT22;6816;48.506;9.050;2024-01-10T14:07:40;3.60;96.40
13488;DHT22;6816;48.506;9.050;2024-01-10T14:10:44;3.70;96.30
13488;DHT22;6816;48.506;9.050;2024-01-10T14:13:45;3.60;96.40
13488;DHT22;6816;48.506;9.050;2024-01-10T14:16:46;3.60;96.40
13488;DHT22;6816;48.506;9.050;2024-01-10T14:19:46;3.60;96.40
13488;DHT22;6816;48.506;9.050;2024-01-10T14:22:47;3.60;96.40
13488;DHT22;6816;48.506;9.050;2024-01-10T14:25:49;3.80;96.40
13488;DHT22;6816;48.506;9.050;2024-01-10T14:28:49;3.60;96.30
13488;DHT22;6816;48.506;9.050;2024-01-10T14:31:53;3.60;96.20
13488;DHT22;6816;48.506;9.050;2024-01-10T14:34:53;3.60;96.30
13488;DHT22;6816;48.506;9.050;2024-01-10T14:37:54;3.60;96.20
13488;DHT22;6816;48.506;9.050;2024-01-10T14:40:55;3.50;96.20
13488;DHT22;6816;48.506;9.050;2024-01-10T14:43:55;3.50;96.20
13488;DHT22;6816;48.506;9.050;2024-01-10T14:46:57;3.70;96.30
13488;DHT22;6816;48.506;9.050;2024-01-10T14:49:57;3.60;96.30
13488;DHT22;6816;48.506;9.050;2024-01-10T14:52:58;3.50;96.20
13488;DHT22;6816;48.506;9.050;2024-01-10T14:55:59;3.50;96.20
13488;DHT22;6816;48.506;9.050;2024-01-10T14:59:00;3.50;96.20
13488;DHT22;6816;48.506;9.050;2024-01-10T15:02:00;3.40;96.20
13488;DHT22;6816;48.506;9.050;2024-01-10T15:05:01;3.60;96.30
13488;DHT22;6816;48.506;9.050;2024-01-10T15:08:02;3.40;96.30
13488;DHT22;6816;48.506;9.050;2024-01-10T15:11:03;3.40;96.30
13488;DHT22;6816;48.506;9.050;2024-01-10T15:14:03;3.30;96.20
13488;DHT22;6816;48.506;9.050;2024-01-10T15:17:04;3.30;96.10
13488;DHT22;6816;48.506;9.050;2024-01-10T15:20:11;3.40;96.10
13488;DHT22;6816;48.506;9.050;2024-01-10T15:23:12;3.20;96.10
13488;DHT22;6816;48.506;9.050;2024-01-10T15:26:16;3.40;96.10
13488;DHT22;6816;48.506;9.050;2024-01-10T15:29:20;3.30;95.80
13488;DHT22;6816;48.506;9.050;2024-01-10T15:32:20;3.40;96.20
13488;DHT22;6816;48.506;9.050;2024-01-10T15:35:21;3.10;96.10
13488;DHT22;6816;48.506;9.050;2024-01-10T15:38:22;3.20;96.20
13488;DHT22;6816;48.506;9.050;2024-01-10T15:41:22;3.20;96.10
13488;DHT22;6816;48.506;9.050;2024-01-10T15:44:23;3.20;96.10
13488;DHT22;6816;48.506;9.050;2024-01-10T15:47:24;3.00;96.10
13488;DHT22;6816;48.506;9.050;2024-01-10T15:50:24;3.10;96.10
13488;DHT22;6816;48.506;9.050;2024-01-10T15:53:28;2.90;96.00
13488;DHT22;6816;48.506;9.050;2024-01-10T15:56:33;2.90;96.00
13488;DHT22;6816;48.506;9.050;2024-01-10T15:59:41;2.90;95.70
13488;DHT22;6816;48.506;9.050;2024-01-10T16:02:50;2.80;95.90
13488;DHT22;6816;48.506;9.050;2024-01-10T16:13:29;2.60;95.20
13488;DHT22;6816;48.506;9.050;2024-01-10T16:17:17;2.60;95.60
13488;DHT22;6816;48.506;9.050;2024-01-10T16:21:08;2.50;96.00
13488;DHT22;6816;48.506;9.050;2024-01-10T16:24:55;2.40;96.20
13488;DHT22;6816;48.506;9.050;2024-01-10T16:32:19;2.30;95.50
13488;DHT22;6816;48.506;9.050;2024-01-10T16:35:48;2.20;95.60
13488;DHT22;6816;48.506;9.050;2024-01-10T16:39:09;2.00;95.80
13488;DHT22;6816;48.506;9.050;2024-01-10T16:42:33;2.00;96.50
13488;DHT22;6816;48.506;9.050;2024-01-10T16:46:04;1.90;96.50
13488;DHT22;6816;48.506;9.050;2024-01-10T16:49:11;1.90;95.60
13488;DHT22;6816;48.506;9.050;2024-01-10T16:52:11;1.80;96.10
13488;DHT22;6816;48.506;9.050;2024-01-10T16:55:19;1.80;96.40
13488;DHT22;6816;48.506;9.050;2024-01-10T16:58:55;1.70;96.00
13488;DHT22;6816;48.506;9.050;2024-01-10T17:01:56;1.80;96.30
13488;DHT22;6816;48.506;9.050;2024-01-10T17:05:18;1.50;96.30
13488;DHT22;6816;48.506;9.050;2024-01-10T17:12:40;1.40;95.90
13488;DHT22;6816;48.506;9.050;2024-01-10T17:16:07;1.30;96.10
13488;DHT22;6816;48.506;9.050;2024-01-10T17:19:50;1.30;95.30
13488;DHT22;6816;48.506;9.050;2024-01-10T17:23:00;1.30;96.00
13488;DHT22;6816;48.506;9.050;2024-01-10T17:26:43;1.20;96.00
13488;DHT22;6816;48.506;9.050;2024-01-10T17:29:44;1.10;95.90
13488;DHT22;6816;48.506;9.050;2024-01-10T17:32:44;1.00;95.90
13488;DHT22;6816;48.506;9.050;2024-01-10T17:35:45;0.90;95.80
13488;DHT22;6816;48.506;9.050;2024-01-10T17:38:45;0.90;95.80
13488;DHT22;6816;48.506;9.050;2024-01-10T17:41:46;0.90;95.80
13488;DHT22;6816;48.506;9.050;2024-01-10T17:48:06;0.80;95.70
13488;DHT22;6816;48.506;9.050;2024-01-10T17:51:07;0.80;95.60
13488;DHT22;6816;48.506;9.050;2024-01-10T17:54:08;0.80;95.60
13488;DHT22;6816;48.506;9.050;2024-01-10T17:57:29;0.60;95.50
13488;DHT22;6816;48.506;9.050;2024-01-10T18:00:29;0.60;95.40
13488;DHT22;6816;48.506;9.050;2024-01-10T18:03:30;0.50;95.40
13488;DHT22;6816;48.506;9.050;2024-01-10T18:06:31;0.40;95.40
13488;DHT22;6816;48.506;9.050;2024-01-10T18:09:32;0.40;95.40
13488;DHT22;6816;48.506;9.050;2024-01-10T18:12:32;0.40;95.40
13488;DHT22;6816;48.506;9.050;2024-01-10T18:15:33;0.40;95.40
13488;DHT22;6816;48.506;9.050;2024-01-10T18:18:33;0.40;95.40
13488;DHT22;6816;48.506;9.050;2024-01-10T18:21:34;0.20;95.30
13488;DHT22;6816;48.506;9.050;2024-01-10T18:24:35;0.30;95.30
13488;DHT22;6816;48.506;9.050;2024-01-10T18:27:35;0.10;95.30
13488;DHT22;6816;48.506;9.050;2024-01-10T18:30:40;0.10;95.20
13488;DHT22;6816;48.506;9.050;2024-01-10T18:33:41;0.10;95.20
13488;DHT22;6816;48.506;9.050;2024-01-10T18:36:41;0.00;95.20
13488;DHT22;6816;48.506;9.050;2024-01-10T18:39:42;0.00;95.20
13488;DHT22;6816;48.506;9.050;2024-01-10T18:42:42;0.00;95.20
13488;DHT22;6816;48.506;9.050;2024-01-10T18:45:43;-0.10;95.10
13488;DHT22;6816;48.506;9.050;2024-01-10T18:48:44;-0.10;95.20
13488;DHT22;6816;48.506;9.050;2024-01-10T18:51:44;-0.20;95.20
13488;DHT22;6816;48.506;9.050;2024-01-10T18:54:45;0.00;95.30
13488;DHT22;6816;48.506;9.050;2024-01-10T18:57:46;-0.20;95.20
13488;DHT22;6816;48.506;9.050;2024-01-10T19:00:48;-0.20;95.20
13488;DHT22;6816;48.506;9.050;2024-01-10T19:03:48;-0.20;95.20
13488;DHT22;6816;48.506;9.050;2024-01-10T19:06:49;-0.30;95.20
13488;DHT22;6816;48.506;9.050;2024-01-10T19:09:54;-0.30;95.50
13488;DHT22;6816;48.506;9.050;2024-01-10T19:12:55;-0.10;95.20
13488;DHT22;6816;48.506;9.050;2024-01-10T19:15:55;-0.30;95.20
13488;DHT22;6816;48.506;9.050;2024-01-10T19:18:56;-0.30;95.20
13488;DHT22;6816;48.506;9.050;2024-01-10T19:21:56;-0.40;95.20
13488;DHT22;6816;48.506;9.050;2024-01-10T19:25:02;-0.40;95.10
13488;DHT22;6816;48.506;9.050;2024-01-10T19:28:03;-0.40;95.20
13488;DHT22;6816;48.506;9.050;2024-01-10T19:31:05;-0.40;95.30
13488;DHT22;6816;48.506;9.050;2024-01-10T19:34:06;-0.40;95.30
13488;DHT22;6816;48.506;9.050;2024-01-10T19:37:08;-0.40;95.30
13488;DHT22;6816;48.506;9.050;2024-01-10T19:40:08;-0.40;95.30
13488;DHT22;6816;48.506;9.050;2024-01-10T19:43:10;-0.50;95.20
13488;DHT22;6816;48.506;9.050;2024-01-10T19:46:11;-0.50;95.20
13488;DHT22;6816;48.506;9.050;2024-01-10T19:49:12;-0.50;95.20
13488;DHT22;6816;48.506;9.050;2024-01-10T19:52:12;-0.50;95.10
13488;DHT22;6816;48.506;9.050;2024-01-10T19:55:15;-0.60;95.10
13488;DHT22;6816;48.506;9.050;2024-01-10T19:58:15;-0.60;95.10
13488;DHT22;6816;48.506;9.050;2024-01-10T20:01:16;-0.60;95.00
13488;DHT22;6816;48.506;9.050;2024-01-10T20:04:18;-0.60;95.00
13488;DHT22;6816;48.506;9.050;2024-01-10T20:07:19;-0.70;94.90